CDT,Max TemperatureF,Mean TemperatureF,Min TemperatureF,Max Dew PointF,MeanDew PointF,Min DewpointF,Max Humidity, Mean Humidity, Min Humidity, Max Sea Level PressureIn, Mean Sea Level PressureIn, Min Sea Level PressureIn, Max VisibilityMiles, Mean VisibilityMiles, Min VisibilityMiles, Max Wind SpeedMPH, Mean Wind SpeedMPH, Max Gust SpeedMPH,PrecipitationIn, CloudCover, Events, WindDirDegrees
2013-6-1,68,52,39,58,52,39,100,91,63,29.82,29.68,29.61,10,9,0,15,4,22,0.22,6,Fog-Rain,312
2013-6-2,56,46,36,40,35,28,100,75,34,30.02,29.95,29.82,10,9,4,16,11,25,0.01,5,Rain-Snow,341
2013-6-3,65,48,31,44,33,26,100,60,27,30.13,30.05,30.02,10,8,0,16,3,21,0.00,1,Fog,346
2013-6-4,60,48,36,47,38,29,100,67,34,30.21,30.17,30.13,10,10,10,9,2,,0.01,6,Rain,136
2013-6-5,51,47,43,50,47,38,100,96,78,30.18,30.11,30.04,10,9,3,13,5,17,0.36,8,Rain,105
2013-6-6,56,50,45,48,44,33,99,81,43,30.05,30.03,30.02,10,10,7,12,6,,0.06,8,Rain,80
2013-6-7,64,52,40,51,45,40,100,79,47,30.05,30.01,29.96,10,10,2,6,1,,0.00,7,Rain,264
2013-6-8,68,57,46,52,47,40,100,72,38,30.04,29.99,29.95,10,10,3,10,2,17,0.02,5,Rain,187
2013-6-9,68,55,42,52,48,43,100,75,51,30.06,30.00,29.92,10,9,0,16,5,23,0.00,3,Fog-Rain,114
2013-6-10,76,66,55,60,55,51,99,70,45,29.92,29.85,29.82,10,10,5,10,5,,0.00,4,Rain,123
2013-6-11,78,64,50,58,50,41,100,64,32,29.92,29.87,29.84,10,7,0,13,3,18,0.00,5,Fog,320
2013-6-12,79,62,44,55,47,40,100,60,27,29.94,29.88,29.80,10,9,1,10,2,,0.00,3,,346
2013-6-13,69,60,48,50,47,45,98,66,46,30.15,30.04,29.87,10,10,7,17,7,28,0.00,3,,10
2013-6-14,75,58,40,50,42,34,100,58,24,30.18,30.10,30.01,10,8,0,10,2,,0.00,2,Fog,170
2013-6-15,65,58,52,64,58,50,100,91,64,30.01,29.93,29.82,10,7,0,14,4,,0.38,7,Fog-Rain,201
2013-6-16,79,65,52,59,51,41,100,72,26,29.93,29.86,29.83,10,8,1,21,8,37,0.06,4,Rain,281
2013-6-17,66,54,41,55,51,37,100,80,60,30.09,29.96,29.88,10,10,7,13,5,16,0.06,6,Rain,60
2013-6-18,69,51,33,44,37,32,100,56,27,30.16,30.12,30.08,10,10,10,13,3,17,0.00,0,,92
2013-6-19,74,56,39,54,44,38,100,61,33,30.15,30.10,30.04,10,9,0,12,3,17,0.00,2,Fog,228
2013-6-20,74,62,50,66,58,50,100,88,59,30.14,30.10,30.07,10,9,2,9,2,16,0.63,4,Rain,103
2013-6-21,70,65,61,66,62,60,100,95,83,30.10,29.98,29.83,10,9,3,18,5,25,0.27,6,Rain,319
2013-6-22,74,66,58,63,60,58,100,90,65,30.11,30.04,29.93,10,9,2,22,5,26,0.00,7,Rain,83
2013-6-23,81,72,62,65,62,59,100,76,51,29.94,29.88,29.82,10,8,2,18,5,24,0.01,4,Rain,198
2013-6-24,82,69,57,67,61,55,100,74,42,29.96,29.90,29.85,10,9,0,13,4,17,0.00,2,Fog,239
2013-6-25,84,72,60,67,63,50,100,76,35,29.89,29.86,29.82,10,9,0,9,3,,0.00,2,Fog,230
2013-6-26,84,71,58,71,65,59,100,87,50,29.82,29.78,29.73,10,7,0,13,2,16,0.18,6,Fog-Rain,185
2013-6-27,80,70,61,68,64,54,100,89,40,29.81,29.77,29.72,10,8,1,10,3,9,0.33,6,Rain,257
2013-6-28,70,63,58,63,60,57,100,91,66,29.76,29.70,29.67,10,9,0,15,6,20,0.06,6,Fog-Rain,333
2013-6-29,69,60,51,59,54,44,100,81,50,29.97,29.84,29.74,10,10,3,14,8,22,0.10,5,Rain,10
2013-6-30,77,61,45,52,44,37,97,63,26,30.14,30.05,29.98,10,10,5,14,3,23,0.00,0,,18